Terminal Aerodrome Forecast
Issued by NWS Jacksonville, FL

Home | Current Version | Previous Version | Text Only | Print | Product List | Glossary On
Versions: 1 2 3 4 5 6 7 8 9 10 11 12 13 14 15 16 17 18 19
000
FTUS42 KJAX 260520
TAFGNV
TAF
KGNV 260520Z 2606/2706 00000KT P6SM SCT120
     FM261400 17006KT P6SM FEW030
     FM261700 19007KT P6SM VCTS BKN050CB
     FM270000 VRB04KT P6SM BKN250=

USA.gov is the U.S. government's official web portal to all federal, state and local government web resources and services.